Sligo Airport - TAF
(Terminal Area Forecast)

Issued at 20:06 UTC on Sat. 16-Oct-21

--- METARS(SA) ---

SPECI EISG(SLIGO) 161931Z AUTO 15010KT 120V180 6000 OVC010 12/11

Q1008 =

--- TAFS() ---

TAF EISG(SLIGO) 161700Z 1618/1703 15010KT 9000 -RA BKN015 BKN020

TEMPO 1618/1703 4500 -RA BKN012 PROB40 TEMPO 1618/1621 17015G25KT 3000

RADZ BR BKN009 PROB40 TEMPO 1621/1703 1500 BR BKN004 =

--- SIGMETS(WS) ---

IE - No VALID SIGMETS/Warnings FOR THIS AREA

--- SIGMETS Volcanic(WV) ---

IE - No VALID SIGMETS/Warnings FOR THIS AREA

--- SIGMETS(WS) ---

UK - No VALID SIGMETS/Warnings FOR THIS AREA

Sligo Airport - METARs

Latest METARs for Sligo and Donegal Airports - updated every 30 mins